Time;durP1;ratioP1;P1;durP2;ratioP2;P2;SDS_P1;SDS_P2;PMS_P1;PMS_P2;Temp;Humidity;BMP_temperature;BMP_pressure;BME280_temperature;BME280_humidity;BME280_pressure;Samples;Min_cycle;Max_cycle;Signal;HPM_P1;HPM_P2
2022/07/20 04:09:44;;;;;;;7.05;2.60;;;;;;;21.73;46.94;100964.97;5608092;31;77197;-55
2022/07/20 04:12:47;;;;;;;8.02;2.85;;;;;;;21.73;46.94;100964.97;5603691;31;33365;-56
2022/07/20 04:15:50;;;;;;;7.75;2.60;;;;;;;21.28;48.08;100969.31;5603787;31;34104;-56
2022/07/20 04:18:52;;;;;;;6.00;3.05;;;;;;;21.42;47.67;100970.97;5603411;31;33593;-57
2022/07/20 04:21:58;;;;;;;5.10;2.83;;;;;;;21.48;48.66;100973.13;5603802;31;34202;-56
2022/07/20 04:25:01;;;;;;;9.07;3.15;;;;;;;21.56;48.33;100974.97;5603403;31;33507;-56
2022/07/20 04:28:03;;;;;;;14.82;3.58;;;;;;;21.66;48.46;100975.66;5602807;31;33737;-56
2022/07/20 04:31:06;;;;;;;5.47;2.62;;;;;;;21.77;48.34;100976.81;5603009;31;33546;-56
2022/07/20 04:34:09;;;;;;;10.98;3.47;;;;;;;21.86;51.51;100971.25;5603209;31;34325;-57
2022/07/20 04:37:12;;;;;;;9.93;3.05;;;;;;;21.94;48.14;100975.75;5603412;31;33807;-56
2022/07/20 04:40:14;;;;;;;7.85;2.80;;;;;;;22.15;47.96;100971.00;5603629;31;34166;-55
2022/07/20 04:43:16;;;;;;;13.48;10.50;;;;;;;22.19;46.90;100971.12;5603592;31;34342;-56
2022/07/20 04:46:18;;;;;;;16.02;4.87;;;;;;;22.36;46.01;100976.31;5603557;31;33710;-56
2022/07/20 04:49:21;;;;;;;8.60;3.30;;;;;;;22.48;45.81;100973.53;5602975;31;33573;-56
2022/07/20 04:52:23;;;;;;;7.43;2.72;;;;;;;22.47;46.21;100982.06;5602963;31;33646;-56
2022/07/20 04:55:25;;;;;;;8.02;3.28;;;;;;;22.57;46.69;100975.31;5603572;31;33729;-56
2022/07/20 04:58:31;;;;;;;6.07;2.80;;;;;;;22.86;45.46;100974.97;5603394;31;33685;-56
2022/07/20 05:01:33;;;;;;;5.22;2.70;;;;;;;22.90;44.79;100983.28;5603414;31;34382;-56
2022/07/20 05:04:35;;;;;;;6.15;2.78;;;;;;;23.07;44.15;100972.03;5603386;31;33623;-56
2022/07/20 05:07:38;;;;;;;4.28;2.35;;;;;;;23.12;44.39;100973.75;5603095;31;33710;-56
2022/07/20 05:10:40;;;;;;;6.85;2.53;;;;;;;23.23;44.09;100983.00;5603461;31;34272;-55
2022/07/20 05:13:42;;;;;;;5.20;2.25;;;;;;;23.25;45.48;100980.72;5603462;31;34260;-56
2022/07/20 05:16:45;;;;;;;5.80;2.45;;;;;;;23.36;43.14;100986.47;5603136;31;33613;-56
2022/07/20 05:19:47;;;;;;;6.53;2.55;;;;;;;23.40;44.04;100982.66;5594693;31;33707;-56
2022/07/20 05:22:49;;;;;;;8.02;2.12;;;;;;;23.65;41.16;100982.50;5589909;31;33754;-56
2022/07/20 05:25:52;;;;;;;6.15;2.33;;;;;;;23.82;42.93;100984.09;5590207;31;33287;-56
2022/07/20 05:28:54;;;;;;;6.65;2.25;;;;;;;23.86;40.56;100991.25;5589813;31;33746;-56
2022/07/20 05:31:56;;;;;;;5.05;2.72;;;;;;;24.08;39.34;100989.81;5590052;31;34360;-56
2022/07/20 05:34:58;;;;;;;4.53;2.50;;;;;;;24.26;39.24;100983.91;5589907;31;33642;-56
2022/07/20 05:38:01;;;;;;;7.93;2.60;;;;;;;24.30;39.52;100980.09;5588811;31;33857;-56
2022/07/20 05:41:03;;;;;;;5.12;2.75;;;;;;;24.46;39.29;100985.56;5589877;31;33656;-56
2022/07/20 05:44:06;;;;;;;6.28;2.62;;;;;;;24.66;38.29;100983.59;5589809;31;33706;-56
2022/07/20 05:47:09;;;;;;;6.90;2.60;;;;;;;24.81;38.13;100984.69;5589508;31;34301;-56
2022/07/20 05:50:12;;;;;;;6.25;2.40;;;;;;;24.97;38.85;100992.84;5590066;31;33641;-56
2022/07/20 05:53:14;;;;;;;4.07;2.30;;;;;;;25.06;38.37;100987.88;5589751;31;33655;-56
2022/07/20 05:56:16;;;;;;;10.52;2.78;;;;;;;25.19;37.96;100989.34;5589856;31;33611;-56
2022/07/20 05:59:18;;;;;;;6.12;2.30;;;;;;;25.29;37.46;100987.94;5589673;31;34147;-57
2022/07/20 06:02:21;;;;;;;9.05;3.60;;;;;;;25.45;37.43;100996.84;5589625;31;33698;-56
2022/07/20 06:05:23;;;;;;;9.65;2.83;;;;;;;25.50;36.52;100982.03;5589727;31;33725;-56
2022/07/20 06:08:26;;;;;;;11.02;2.58;;;;;;;25.64;36.31;100981.47;5589330;31;33654;-56
2022/07/20 06:11:28;;;;;;;6.30;2.53;;;;;;;25.72;36.13;100983.16;5589411;31;32499;-56
2022/07/20 06:14:30;;;;;;;7.05;2.70;;;;;;;25.85;35.81;100989.28;5589523;31;33800;-56
2022/07/20 06:17:37;;;;;;;6.90;2.33;;;;;;;25.93;35.55;100988.22;5589481;31;34298;-56
2022/07/20 06:20:39;;;;;;;7.40;2.50;;;;;;;26.04;34.92;100988.38;5589475;31;33703;-56
2022/07/20 06:23:42;;;;;;;7.50;2.58;;;;;;;26.14;36.11;100985.00;5589496;31;34052;-57
2022/07/20 06:26:45;;;;;;;12.20;2.60;;;;;;;26.29;34.65;100988.72;5589378;31;34305;-57
2022/07/20 06:29:48;;;;;;;9.32;2.85;;;;;;;26.37;35.26;100985.69;5588967;31;33625;-57
2022/07/20 06:32:50;;;;;;;13.45;3.17;;;;;;;26.43;37.90;100991.66;5588741;31;34297;-57
2022/07/20 06:35:53;;;;;;;16.62;2.97;;;;;;;26.52;37.13;100994.94;5589464;31;34313;-57
2022/07/20 06:38:55;;;;;;;10.02;2.80;;;;;;;26.62;35.07;100996.22;5589345;31;33878;-56
2022/07/20 06:41:58;;;;;;;8.90;3.12;;;;;;;26.67;34.61;100984.91;5588743;31;33617;-57
2022/07/20 06:45:00;;;;;;;10.13;2.67;;;;;;;26.75;34.64;100992.06;5589204;31;33676;-56
2022/07/20 06:48:03;;;;;;;6.32;2.78;;;;;;;26.91;34.27;100989.09;5589215;31;34257;-56
2022/07/20 06:51:06;;;;;;;6.60;2.47;;;;;;;26.93;34.25;100978.53;5587788;31;33623;-56
2022/07/20 06:54:09;;;;;;;6.82;2.53;;;;;;;27.00;33.86;100984.09;5577147;31;33587;-56
2022/07/20 06:57:15;;;;;;;9.25;2.62;;;;;;;27.09;34.02;100986.56;5570914;31;34419;-56
2022/07/20 07:00:18;;;;;;;14.65;3.47;;;;;;;27.19;33.39;100988.63;5589082;31;33742;-57
2022/07/20 07:03:20;;;;;;;4.75;2.35;;;;;;;27.30;33.17;100986.75;5589063;31;33918;-56
2022/07/20 07:06:27;;;;;;;13.05;3.05;;;;;;;27.38;33.37;100982.91;5589081;31;33715;-57
2022/07/20 07:09:29;;;;;;;6.62;2.75;;;;;;;27.44;32.85;100979.81;5589053;31;33610;-56
2022/07/20 07:12:32;;;;;;;9.32;3.00;;;;;;;27.52;33.28;100976.72;5588903;31;34272;-56
2022/07/20 07:15:34;;;;;;;11.18;3.50;;;;;;;27.57;32.60;100973.63;5588957;31;33628;-56
2022/07/20 07:18:38;;;;;;;10.40;3.22;;;;;;;27.63;32.62;100976.81;5588697;31;33598;-56
2022/07/20 07:21:41;;;;;;;13.77;3.00;;;;;;;27.72;33.02;100976.50;5589052;31;33608;-56
2022/07/20 07:24:44;;;;;;;5.37;2.45;;;;;;;27.86;32.63;100985.66;5588742;31;33736;-56
2022/07/20 07:27:46;;;;;;;6.37;2.47;;;;;;;27.93;32.32;100979.41;5588683;31;33756;-56
2022/07/20 07:30:50;;;;;;;8.45;3.10;;;;;;;28.02;31.67;100971.59;5588396;31;34390;-56
2022/07/20 07:33:52;;;;;;;8.95;2.80;;;;;;;28.06;32.21;100977.91;5588803;31;34430;-56
2022/07/20 07:36:55;;;;;;;10.00;2.55;;;;;;;28.19;30.96;100974.84;5588653;31;34313;-56
2022/07/20 07:39:57;;;;;;;10.27;3.28;;;;;;;28.22;31.99;100976.81;5588787;31;33688;-56
2022/07/20 07:43:00;;;;;;;5.87;2.50;;;;;;;28.29;31.88;100971.34;5587030;31;33613;-56
2022/07/20 07:46:02;;;;;;;11.10;2.80;;;;;;;28.31;31.58;100971.72;5588640;31;33570;-57
2022/07/20 07:49:04;;;;;;;8.65;2.62;;;;;;;28.39;31.97;100967.03;5588574;31;33664;-56
2022/07/20 07:52:07;;;;;;;6.90;2.45;;;;;;;28.44;31.59;100961.19;5588761;31;33621;-56
2022/07/20 07:55:09;;;;;;;14.45;3.35;;;;;;;28.56;31.35;100958.84;5588337;31;33765;-56
2022/07/20 07:58:12;;;;;;;14.87;2.78;;;;;;;28.62;31.01;100956.53;5588470;31;33500;-56
2022/07/20 08:01:15;;;;;;;9.93;2.75;;;;;;;28.75;30.27;100954.19;5588107;31;34108;-57
2022/07/20 08:04:17;;;;;;;12.82;2.97;;;;;;;28.77;30.79;100955.37;5588291;31;33617;-57
2022/07/20 08:07:19;;;;;;;10.65;2.42;;;;;;;28.94;31.65;100958.56;5588097;31;33930;-56
2022/07/20 08:10:22;;;;;;;15.60;3.15;;;;;;;28.93;29.97;100959.75;5569533;31;34267;-57
2022/07/20 08:13:24;;;;;;;8.85;2.58;;;;;;;29.00;30.71;100959.78;5568609;32;33625;-56
2022/07/20 08:16:26;;;;;;;16.08;3.37;;;;;;;29.02;30.67;100955.44;5568580;32;33658;-56
2022/07/20 08:19:28;;;;;;;9.10;2.92;;;;;;;29.17;30.20;100953.50;5568216;32;33581;-58
2022/07/20 08:22:31;;;;;;;9.43;3.20;;;;;;;29.21;30.40;100945.22;5586274;31;34164;-56
2022/07/20 08:25:33;;;;;;;7.90;3.30;;;;;;;29.26;30.34;100953.09;5587532;31;34189;-56
2022/07/20 08:28:35;;;;;;;9.15;2.30;;;;;;;29.32;30.30;100945.22;5587526;31;33379;-56
2022/07/20 08:31:38;;;;;;;17.98;3.12;;;;;;;29.36;30.12;100948.75;5587747;31;34571;-57
2022/07/20 08:34:40;;;;;;;10.43;2.58;;;;;;;29.43;29.66;100946.00;5586400;31;34361;-56
2022/07/20 08:37:42;;;;;;;10.52;2.60;;;;;;;29.49;28.46;100961.78;5587596;31;34376;-57
2022/07/20 08:40:45;;;;;;;7.53;2.72;;;;;;;29.65;27.91;100955.09;5587562;31;33590;-56
2022/07/20 08:43:47;;;;;;;13.43;2.60;;;;;;;29.58;28.30;100944.81;5587470;31;34273;-56
2022/07/20 08:46:54;;;;;;;11.90;2.80;;;;;;;29.54;28.12;100944.03;5587446;31;34409;-56
2022/07/20 08:49:56;;;;;;;9.68;2.78;;;;;;;29.60;28.46;100939.69;5587265;31;33637;-56
2022/07/20 08:52:59;;;;;;;7.80;2.92;;;;;;;29.68;28.60;100938.50;5587446;31;33592;-56
2022/07/20 08:56:02;;;;;;;12.07;2.95;;;;;;;29.75;28.56;100936.91;5589693;31;33686;-56
2022/07/20 08:59:04;;;;;;;7.35;2.70;;;;;;;29.86;28.25;100941.22;5590079;31;34389;-56
2022/07/20 09:02:08;;;;;;;8.77;2.80;;;;;;;29.86;28.51;100929.38;5590004;31;33757;-56
2022/07/20 09:05:11;;;;;;;10.88;2.85;;;;;;;29.98;28.06;100928.94;5590041;31;34257;-56
2022/07/20 09:08:17;;;;;;;8.45;2.55;;;;;;;30.02;27.67;100926.19;5589637;31;33721;-56
2022/07/20 09:11:21;;;;;;;9.35;2.75;;;;;;;30.09;28.22;100928.91;5590034;31;33616;-56
2022/07/20 09:14:35;;;;;;;26.65;3.47;;;;;;;30.10;28.03;100928.53;5589812;31;33391;-56
2022/07/20 09:17:37;;;;;;;7.72;2.90;;;;;;;30.07;27.26;100920.25;5589765;31;34316;-56
2022/07/20 09:20:46;;;;;;;6.15;2.42;;;;;;;30.11;27.35;100919.03;5589970;31;34299;-57
2022/07/20 09:23:54;;;;;;;10.18;2.70;;;;;;;30.32;27.55;100920.16;5589650;31;34137;-56
2022/07/20 09:27:04;;;;;;;7.78;2.65;;;;;;;30.47;27.04;100915.34;5589826;31;34455;-56
2022/07/20 09:30:10;;;;;;;9.80;2.72;;;;;;;30.40;27.20;100918.94;5589501;31;33713;-57
2022/07/20 09:33:12;;;;;;;4.97;2.65;;;;;;;30.55;26.75;100909.34;5589221;31;34401;-57
2022/07/20 09:36:15;;;;;;;9.02;2.70;;;;;;;30.64;26.92;100906.94;5589491;31;33746;-57
2022/07/20 09:39:20;;;;;;;6.50;2.10;;;;;;;30.67;26.89;100902.59;5589356;31;33734;-57
2022/07/20 09:42:39;;;;;;;4.57;2.20;;;;;;;30.84;26.70;100900.91;5589416;31;34391;-57
2022/07/20 09:45:41;;;;;;;9.75;2.42;;;;;;;30.89;26.10;100900.47;5589530;31;34291;-56
2022/07/20 09:48:47;;;;;;;7.72;2.08;;;;;;;30.91;25.84;100895.31;5589046;31;33625;-57
2022/07/20 09:51:57;;;;;;;;;;;;;;;31.01;26.20;100891.69;5589895;31;34211;-57
2022/07/20 09:55:19;;;;;;;9.68;2.65;;;;;;;31.05;25.72;100891.66;5589375;31;34105;-57
2022/07/20 09:58:29;;;;;;;5.68;2.30;;;;;;;31.09;25.42;100884.91;5588230;31;33737;-57
2022/07/20 10:01:35;;;;;;;8.73;2.58;;;;;;;31.00;26.41;100889.31;5589103;31;34720;-57
2022/07/20 10:04:38;;;;;;;9.88;2.40;;;;;;;31.04;25.70;100885.31;5588204;31;34320;-57
2022/07/20 10:07:43;;;;;;;9.73;2.15;;;;;;;31.07;25.26;100883.72;5589267;31;33832;-58
2022/07/20 10:10:45;;;;;;;10.55;2.30;;;;;;;31.11;25.72;100885.25;5588927;31;33667;-57
2022/07/20 10:13:48;;;;;;;7.55;2.40;;;;;;;31.24;25.78;100882.00;5589471;31;33595;-57
2022/07/20 10:16:53;;;;;;;42.88;5.10;;;;;;;31.20;25.59;100879.25;5589374;31;33639;-57
2022/07/20 10:19:55;;;;;;;63.47;5.77;;;;;;;31.23;25.51;100874.88;5589228;31;34301;-57
2022/07/20 10:23:16;;;;;;;1999.90;502.80;;;;;;;31.26;25.34;100861.00;5589309;31;33809;-57
2022/07/20 10:26:25;;;;;;;60.92;6.97;;;;;;;31.88;26.28;100861.16;5589039;31;34339;-57
2022/07/20 10:29:31;;;;;;;31.77;3.75;;;;;;;31.87;24.76;100862.34;5589362;31;33629;-57
2022/07/20 10:32:33;;;;;;;110.75;8.07;;;;;;;31.87;24.26;100865.13;5589417;31;33689;-57
2022/07/20 10:35:36;;;;;;;4.05;2.25;;;;;;;31.68;24.27;100870.06;5587709;31;33779;-57
2022/07/20 10:38:39;;;;;;;12.20;2.22;;;;;;;31.70;24.05;100853.84;5589036;31;33391;-56
2022/07/20 10:42:10;;;;;;;21.60;2.95;;;;;;;31.89;23.99;100854.41;5589064;31;34389;-57
2022/07/20 10:45:13;;;;;;;8.40;2.20;;;;;;;31.89;24.20;100851.63;5588657;31;33663;-57
2022/07/20 10:48:17;;;;;;;7.53;2.37;;;;;;;31.88;23.79;100844.53;5589025;31;33737;-57
2022/07/20 10:51:19;;;;;;;10.63;2.62;;;;;;;31.83;22.98;100832.69;5589285;31;33285;-57
2022/07/20 10:54:34;;;;;;;6.25;2.20;;;;;;;31.74;23.96;100834.38;5589194;31;34288;-57
2022/07/20 10:57:39;;;;;;;;;;;;;;;31.69;24.08;100840.37;5589764;31;34327;-57
2022/07/20 11:00:57;;;;;;;6.20;2.37;;;;;;;31.96;23.86;100838.50;5589429;31;34594;-57
2022/07/20 11:03:59;;;;;;;5.18;2.40;;;;;;;31.91;23.70;100824.31;5589299;31;34578;-57
2022/07/20 11:07:02;;;;;;;10.00;2.50;;;;;;;31.83;23.78;100818.81;5589150;31;33550;-57
2022/07/20 11:10:27;;;;;;;5.03;2.20;;;;;;;31.82;24.05;100820.03;5589142;31;33810;-57
2022/07/20 11:13:30;;;;;;;7.40;2.40;;;;;;;31.89;23.68;100821.16;5589105;31;33683;-57
2022/07/20 11:16:34;;;;;;;6.68;2.20;;;;;;;31.87;23.87;100824.31;5588328;31;33768;-57
2022/07/20 11:19:39;;;;;;;11.35;2.20;;;;;;;32.06;23.12;100814.59;5589083;31;33770;-56
2022/07/20 11:22:41;;;;;;;;;;;;;;;32.04;22.84;100808.69;5589330;31;34316;-56
2022/07/20 11:25:53;;;;;;;7.47;2.50;;;;;;;32.05;23.32;100805.50;5589091;31;34509;-56
2022/07/20 11:28:58;;;;;;;6.50;2.00;;;;;;;32.15;23.50;100803.75;5588960;31;34471;-57
2022/07/20 11:32:08;;;;;;;5.72;2.00;;;;;;;31.97;23.40;100801.25;5588870;31;33707;-57
2022/07/20 11:35:11;;;;;;;8.70;2.42;;;;;;;32.03;23.65;100798.78;5588895;31;34366;-56
2022/07/20 11:38:14;;;;;;;3.72;2.00;;;;;;;32.17;23.33;100797.81;5588911;31;33712;-56
2022/07/20 11:41:31;;;;;;;8.20;2.15;;;;;;;32.19;23.20;100796.19;5588871;31;33699;-56
2022/07/20 11:44:34;;;;;;;7.87;2.15;;;;;;;32.19;22.43;100782.31;5588664;31;33642;-57
2022/07/20 11:47:36;;;;;;;4.75;1.90;;;;;;;32.05;23.22;100779.72;5588772;31;33629;-56
2022/07/20 11:50:39;;;;;;;6.87;2.40;;;;;;;32.14;23.41;100788.31;5588593;31;34518;-56
2022/07/20 11:53:41;;;;;;;6.32;2.40;;;;;;;32.19;23.20;100785.09;5588642;31;33781;-56
2022/07/20 11:56:44;;;;;;;8.82;2.20;;;;;;;32.27;23.40;100774.66;5588570;31;33750;-56
2022/07/20 11:59:46;;;;;;;3.00;1.87;;;;;;;32.38;23.17;100775.28;5588534;31;34339;-56
2022/07/20 12:02:48;;;;;;;9.27;2.40;;;;;;;32.39;22.94;100776.84;5588414;31;34352;-57
2022/07/20 12:05:51;;;;;;;4.40;1.75;;;;;;;32.42;23.29;100758.59;5588422;31;34491;-57
2022/07/20 12:09:06;;;;;;;8.60;2.35;;;;;;;32.39;23.32;100770.53;5588034;31;33673;-57
2022/07/20 12:12:44;;;;;;;7.28;2.40;;;;;;;32.47;23.01;100760.91;5588296;31;33609;-56
2022/07/20 12:15:31;;;;;;;6.75;2.15;;;;;;;32.61;23.17;100762.66;5588203;31;33703;-57
2022/07/20 12:18:52;;;;;;;4.55;2.10;;;;;;;32.74;22.64;100763.63;5588004;31;34344;-56
2022/07/20 12:21:55;;;;;;;3.62;2.33;;;;;;;32.58;22.78;100760.72;5588198;31;33801;-56
2022/07/20 12:24:59;;;;;;;5.18;2.00;;;;;;;32.65;22.32;100755.03;5588029;31;34346;-57
2022/07/20 12:28:01;;;;;;;5.03;2.20;;;;;;;32.55;22.87;100751.28;5588134;31;33663;-56
2022/07/20 12:31:18;;;;;;;5.50;2.20;;;;;;;32.69;22.55;100747.47;5590198;31;33662;-56
2022/07/20 12:34:20;;;;;;;6.78;2.10;;;;;;;32.61;22.72;100752.31;5590589;31;33704;-57
2022/07/20 12:37:23;;;;;;;6.35;2.25;;;;;;;32.52;22.93;100746.56;5590610;31;33323;-57
2022/07/20 12:40:42;;;;;;;5.82;2.00;;;;;;;32.59;22.46;100745.66;5590343;31;33616;-56
2022/07/20 12:43:44;;;;;;;6.32;2.17;;;;;;;32.53;23.12;100742.56;5590470;31;33763;-57
2022/07/20 12:46:46;;;;;;;7.85;2.33;;;;;;;32.57;21.85;100745.28;5590379;31;33694;-57
2022/07/20 12:49:49;;;;;;;7.10;2.25;;;;;;;32.49;22.20;100739.06;5590348;31;33691;-56
2022/07/20 12:52:51;;;;;;;3.53;1.90;;;;;;;32.52;22.38;100738.22;5590320;31;33632;-56
